sensor_id;sensor_type;location;lat;lon;timestamp;temperature;humidity
58582;DHT22;44361;51.476;5.700;2022-09-23T00:00:48;8.80;99.90
58582;DHT22;44361;51.476;5.700;2022-09-23T00:03:22;8.70;99.90
58582;DHT22;44361;51.476;5.700;2022-09-23T00:05:59;8.70;99.90
58582;DHT22;44361;51.476;5.700;2022-09-23T00:08:25;8.70;99.90
58582;DHT22;44361;51.476;5.700;2022-09-23T00:10:51;8.60;99.90
58582;DHT22;44361;51.476;5.700;2022-09-23T00:13:16;8.60;99.90
58582;DHT22;44361;51.476;5.700;2022-09-23T00:15:42;8.70;99.90
58582;DHT22;44361;51.476;5.700;2022-09-23T00:18:07;8.70;99.90
58582;DHT22;44361;51.476;5.700;2022-09-23T00:20:34;8.70;99.90
58582;DHT22;44361;51.476;5.700;2022-09-23T00:23:00;8.80;99.90
58582;DHT22;44361;51.476;5.700;2022-09-23T00:25:26;8.80;99.90
58582;DHT22;44361;51.476;5.700;2022-09-23T00:27:54;8.80;99.90
58582;DHT22;44361;51.476;5.700;2022-09-23T00:30:20;8.80;99.90
58582;DHT22;44361;51.476;5.700;2022-09-23T00:32:47;8.80;99.90
58582;DHT22;44361;51.476;5.700;2022-09-23T00:35:13;8.80;99.90
58582;DHT22;44361;51.476;5.700;2022-09-23T00:37:39;8.80;99.90
58582;DHT22;44361;51.476;5.700;2022-09-23T00:40:04;8.80;99.90
58582;DHT22;44361;51.476;5.700;2022-09-23T00:42:30;8.90;99.90
58582;DHT22;44361;51.476;5.700;2022-09-23T00:44:58;8.90;99.90
58582;DHT22;44361;51.476;5.700;2022-09-23T00:47:52;8.90;99.90
58582;DHT22;44361;51.476;5.700;2022-09-23T00:50:35;8.90;99.90
58582;DHT22;44361;51.476;5.700;2022-09-23T00:53:05;8.90;99.90
58582;DHT22;44361;51.476;5.700;2022-09-23T00:55:55;8.90;99.90
58582;DHT22;44361;51.476;5.700;2022-09-23T00:58:28;8.90;99.90
58582;DHT22;44361;51.476;5.700;2022-09-23T01:00:57;8.80;99.90
58582;DHT22;44361;51.476;5.700;2022-09-23T01:03:24;8.80;99.90
58582;DHT22;44361;51.476;5.700;2022-09-23T01:05:50;8.80;99.90
58582;DHT22;44361;51.476;5.700;2022-09-23T01:08:16;8.80;99.90
58582;DHT22;44361;51.476;5.700;2022-09-23T01:16:42;8.70;99.90
58582;DHT22;44361;51.476;5.700;2022-09-23T01:36:23;8.50;99.90
58582;DHT22;44361;51.476;5.700;2022-09-23T01:41:57;8.60;99.90
58582;DHT22;44361;51.476;5.700;2022-09-23T01:44:29;8.50;99.90
58582;DHT22;44361;51.476;5.700;2022-09-23T01:47:09;8.50;99.90
58582;DHT22;44361;51.476;5.700;2022-09-23T01:50:31;8.40;99.90
58582;DHT22;44361;51.476;5.700;2022-09-23T01:53:16;8.40;99.90
58582;DHT22;44361;51.476;5.700;2022-09-23T01:55:48;8.40;99.90
58582;DHT22;44361;51.476;5.700;2022-09-23T01:58:25;8.40;99.90
58582;DHT22;44361;51.476;5.700;2022-09-23T02:01:04;8.40;99.90
58582;DHT22;44361;51.476;5.700;2022-09-23T02:03:42;8.50;99.90
58582;DHT22;44361;51.476;5.700;2022-09-23T02:06:14;8.50;99.90
58582;DHT22;44361;51.476;5.700;2022-09-23T02:08:44;8.50;99.90
58582;DHT22;44361;51.476;5.700;2022-09-23T02:11:13;8.50;99.90
58582;DHT22;44361;51.476;5.700;2022-09-23T02:13:48;8.50;99.90
58582;DHT22;44361;51.476;5.700;2022-09-23T02:16:30;8.50;99.90
58582;DHT22;44361;51.476;5.700;2022-09-23T02:21:45;8.50;99.90
58582;DHT22;44361;51.476;5.700;2022-09-23T02:24:18;8.50;99.90
58582;DHT22;44361;51.476;5.700;2022-09-23T02:26:49;8.60;99.90
58582;DHT22;44361;51.476;5.700;2022-09-23T02:29:20;8.60;99.90
58582;DHT22;44361;51.476;5.700;2022-09-23T02:32:05;8.60;99.90
58582;DHT22;44361;51.476;5.700;2022-09-23T02:34:46;8.60;99.90
58582;DHT22;44361;51.476;5.700;2022-09-23T02:37:30;8.60;99.90
58582;DHT22;44361;51.476;5.700;2022-09-23T02:40:01;8.60;99.90
58582;DHT22;44361;51.476;5.700;2022-09-23T02:42:37;8.70;99.90
58582;DHT22;44361;51.476;5.700;2022-09-23T02:45:04;8.70;99.90
58582;DHT22;44361;51.476;5.700;2022-09-23T02:47:33;8.70;99.90
58582;DHT22;44361;51.476;5.700;2022-09-23T02:50:00;8.70;99.90
58582;DHT22;44361;51.476;5.700;2022-09-23T02:52:26;8.60;99.90
58582;DHT22;44361;51.476;5.700;2022-09-23T02:54:52;8.60;99.90
58582;DHT22;44361;51.476;5.700;2022-09-23T02:57:18;8.60;99.90
58582;DHT22;44361;51.476;5.700;2022-09-23T02:59:43;8.60;99.90
58582;DHT22;44361;51.476;5.700;2022-09-23T03:05:24;8.50;99.90
58582;DHT22;44361;51.476;5.700;2022-09-23T03:13:47;8.30;99.90
58582;DHT22;44361;51.476;5.700;2022-09-23T03:16:40;8.20;99.90
58582;DHT22;44361;51.476;5.700;2022-09-23T03:24:47;8.10;99.90
58582;DHT22;44361;51.476;5.700;2022-09-23T03:27:17;8.10;99.90
58582;DHT22;44361;51.476;5.700;2022-09-23T03:29:47;8.10;99.90
58582;DHT22;44361;51.476;5.700;2022-09-23T03:32:16;8.00;99.90
58582;DHT22;44361;51.476;5.700;2022-09-23T03:34:43;8.00;99.90
58582;DHT22;44361;51.476;5.700;2022-09-23T03:42:38;7.90;99.90
58582;DHT22;44361;51.476;5.700;2022-09-23T03:45:12;7.90;99.90
58582;DHT22;44361;51.476;5.700;2022-09-23T03:47:43;7.90;99.90
58582;DHT22;44361;51.476;5.700;2022-09-23T03:50:09;7.90;99.90
58582;DHT22;44361;51.476;5.700;2022-09-23T03:52:35;7.80;99.90
58582;DHT22;44361;51.476;5.700;2022-09-23T03:55:01;7.80;99.90
58582;DHT22;44361;51.476;5.700;2022-09-23T03:57:26;7.70;99.90
58582;DHT22;44361;51.476;5.700;2022-09-23T03:59:52;7.70;99.90
58582;DHT22;44361;51.476;5.700;2022-09-23T04:02:18;7.60;99.90
58582;DHT22;44361;51.476;5.700;2022-09-23T04:04:44;7.60;99.90
58582;DHT22;44361;51.476;5.700;2022-09-23T04:07:11;7.60;99.90
58582;DHT22;44361;51.476;5.700;2022-09-23T04:09:37;7.50;99.90
58582;DHT22;44361;51.476;5.700;2022-09-23T04:12:03;7.50;99.90
58582;DHT22;44361;51.476;5.700;2022-09-23T04:14:29;7.50;99.90
58582;DHT22;44361;51.476;5.700;2022-09-23T04:16:55;7.40;99.90
58582;DHT22;44361;51.476;5.700;2022-09-23T04:19:21;7.40;99.90
58582;DHT22;44361;51.476;5.700;2022-09-23T04:21:47;7.40;99.90
58582;DHT22;44361;51.476;5.700;2022-09-23T04:24:13;7.40;99.90
58582;DHT22;44361;51.476;5.700;2022-09-23T04:26:40;7.40;99.90
58582;DHT22;44361;51.476;5.700;2022-09-23T04:29:06;7.40;99.90
58582;DHT22;44361;51.476;5.700;2022-09-23T04:31:32;7.40;99.90
58582;DHT22;44361;51.476;5.700;2022-09-23T04:33:58;7.40;99.90
58582;DHT22;44361;51.476;5.700;2022-09-23T04:36:24;7.40;99.90
58582;DHT22;44361;51.476;5.700;2022-09-23T04:38:50;7.40;99.90
58582;DHT22;44361;51.476;5.700;2022-09-23T04:41:17;7.40;99.90
58582;DHT22;44361;51.476;5.700;2022-09-23T04:43:44;7.40;99.90
58582;DHT22;44361;51.476;5.700;2022-09-23T04:46:11;7.40;99.90
58582;DHT22;44361;51.476;5.700;2022-09-23T04:48:38;7.40;99.90
58582;DHT22;44361;51.476;5.700;2022-09-23T04:51:06;7.50;99.90
58582;DHT22;44361;51.476;5.700;2022-09-23T04:53:33;7.50;99.90
58582;DHT22;44361;51.476;5.700;2022-09-23T04:56:01;7.50;99.90
58582;DHT22;44361;51.476;5.700;2022-09-23T04:58:27;7.50;99.90
58582;DHT22;44361;51.476;5.700;2022-09-23T05:00:53;7.50;99.90
58582;DHT22;44361;51.476;5.700;2022-09-23T05:03:19;7.50;99.90
58582;DHT22;44361;51.476;5.700;2022-09-23T05:05:45;7.50;99.90
58582;DHT22;44361;51.476;5.700;2022-09-23T05:08:10;7.50;99.90
58582;DHT22;44361;51.476;5.700;2022-09-23T05:10:36;7.50;99.90
58582;DHT22;44361;51.476;5.700;2022-09-23T05:13:02;7.50;99.90
58582;DHT22;44361;51.476;5.700;2022-09-23T05:15:27;7.50;99.90
58582;DHT22;44361;51.476;5.700;2022-09-23T05:17:56;7.60;99.90
58582;DHT22;44361;51.476;5.700;2022-09-23T05:20:23;7.60;99.90
58582;DHT22;44361;51.476;5.700;2022-09-23T05:22:48;7.60;99.90
58582;DHT22;44361;51.476;5.700;2022-09-23T05:25:14;7.60;99.90
58582;DHT22;44361;51.476;5.700;2022-09-23T05:27:39;7.60;99.90
58582;DHT22;44361;51.476;5.700;2022-09-23T05:30:05;7.50;99.90
58582;DHT22;44361;51.476;5.700;2022-09-23T05:32:31;7.50;99.90
58582;DHT22;44361;51.476;5.700;2022-09-23T05:34:57;7.60;99.90
58582;DHT22;44361;51.476;5.700;2022-09-23T05:37:22;7.60;99.90
58582;DHT22;44361;51.476;5.700;2022-09-23T05:39:49;7.60;99.90
58582;DHT22;44361;51.476;5.700;2022-09-23T05:42:15;7.70;99.90
58582;DHT22;44361;51.476;5.700;2022-09-23T05:44:42;7.70;99.90
58582;DHT22;44361;51.476;5.700;2022-09-23T05:47:08;7.80;99.90
58582;DHT22;44361;51.476;5.700;2022-09-23T05:49:33;7.90;99.90
58582;DHT22;44361;51.476;5.700;2022-09-23T05:52:01;7.90;99.90
58582;DHT22;44361;51.476;5.700;2022-09-23T05:54:27;8.00;99.90
58582;DHT22;44361;51.476;5.700;2022-09-23T05:56:52;8.00;99.90
58582;DHT22;44361;51.476;5.700;2022-09-23T05:59:18;8.10;99.90
58582;DHT22;44361;51.476;5.700;2022-09-23T06:01:43;8.10;99.90
58582;DHT22;44361;51.476;5.700;2022-09-23T06:04:11;8.20;99.90
58582;DHT22;44361;51.476;5.700;2022-09-23T06:06:39;8.30;99.90
58582;DHT22;44361;51.476;5.700;2022-09-23T06:09:08;8.40;99.90
58582;DHT22;44361;51.476;5.700;2022-09-23T06:11:35;8.50;99.90
58582;DHT22;44361;51.476;5.700;2022-09-23T06:14:02;8.60;99.90
58582;DHT22;44361;51.476;5.700;2022-09-23T06:16:29;8.70;99.90
58582;DHT22;44361;51.476;5.700;2022-09-23T06:18:55;8.80;99.90
58582;DHT22;44361;51.476;5.700;2022-09-23T06:21:21;9.00;99.90
58582;DHT22;44361;51.476;5.700;2022-09-23T06:23:47;9.10;99.90
58582;DHT22;44361;51.476;5.700;2022-09-23T06:26:15;9.20;99.90
58582;DHT22;44361;51.476;5.700;2022-09-23T06:28:42;9.20;99.90
58582;DHT22;44361;51.476;5.700;2022-09-23T06:33:38;9.40;99.90
58582;DHT22;44361;51.476;5.700;2022-09-23T06:36:05;9.50;99.90
58582;DHT22;44361;51.476;5.700;2022-09-23T06:38:31;9.60;99.90
58582;DHT22;44361;51.476;5.700;2022-09-23T06:40:58;9.60;99.90
58582;DHT22;44361;51.476;5.700;2022-09-23T06:43:25;9.70;99.90
58582;DHT22;44361;51.476;5.700;2022-09-23T06:45:54;9.80;99.90
58582;DHT22;44361;51.476;5.700;2022-09-23T06:48:21;9.90;99.90
58582;DHT22;44361;51.476;5.700;2022-09-23T06:50:47;9.90;99.90
58582;DHT22;44361;51.476;5.700;2022-09-23T06:53:16;10.00;99.90
58582;DHT22;44361;51.476;5.700;2022-09-23T06:55:42;10.20;99.90
58582;DHT22;44361;51.476;5.700;2022-09-23T06:58:08;10.20;99.90
58582;DHT22;44361;51.476;5.700;2022-09-23T07:00:35;10.40;99.90
58582;DHT22;44361;51.476;5.700;2022-09-23T07:03:04;10.40;99.90
58582;DHT22;44361;51.476;5.700;2022-09-23T07:05:30;10.60;99.90
58582;DHT22;44361;51.476;5.700;2022-09-23T07:07:55;10.60;99.90
58582;DHT22;44361;51.476;5.700;2022-09-23T07:10:21;10.70;99.90
58582;DHT22;44361;51.476;5.700;2022-09-23T07:12:46;10.70;99.90
58582;DHT22;44361;51.476;5.700;2022-09-23T07:15:12;10.70;99.90
58582;DHT22;44361;51.476;5.700;2022-09-23T07:17:40;10.70;99.90
58582;DHT22;44361;51.476;5.700;2022-09-23T07:20:07;10.80;99.90
58582;DHT22;44361;51.476;5.700;2022-09-23T07:22:33;10.90;99.90
58582;DHT22;44361;51.476;5.700;2022-09-23T07:25:00;11.00;99.90
58582;DHT22;44361;51.476;5.700;2022-09-23T07:27:26;11.20;99.90
58582;DHT22;44361;51.476;5.700;2022-09-23T07:29:52;11.40;99.90
58582;DHT22;44361;51.476;5.700;2022-09-23T07:32:19;11.50;99.90
58582;DHT22;44361;51.476;5.700;2022-09-23T07:34:46;11.70;99.90
58582;DHT22;44361;51.476;5.700;2022-09-23T07:37:16;11.80;99.90
58582;DHT22;44361;51.476;5.700;2022-09-23T07:39:42;11.90;99.90
58582;DHT22;44361;51.476;5.700;2022-09-23T07:42:08;12.00;99.90
58582;DHT22;44361;51.476;5.700;2022-09-23T07:44:34;12.30;99.90
58582;DHT22;44361;51.476;5.700;2022-09-23T07:47:00;12.50;99.90
58582;DHT22;44361;51.476;5.700;2022-09-23T07:49:26;12.60;99.90
58582;DHT22;44361;51.476;5.700;2022-09-23T07:51:52;12.80;99.90
58582;DHT22;44361;51.476;5.700;2022-09-23T07:54:18;12.90;99.90
58582;DHT22;44361;51.476;5.700;2022-09-23T07:56:44;13.00;99.90
58582;DHT22;44361;51.476;5.700;2022-09-23T07:59:12;13.00;99.90
58582;DHT22;44361;51.476;5.700;2022-09-23T08:01:41;13.10;99.90
58582;DHT22;44361;51.476;5.700;2022-09-23T08:06:44;13.20;99.90
58582;DHT22;44361;51.476;5.700;2022-09-23T08:09:10;13.40;99.90
58582;DHT22;44361;51.476;5.700;2022-09-23T08:11:36;13.60;99.90
58582;DHT22;44361;51.476;5.700;2022-09-23T08:14:07;13.80;99.90
58582;DHT22;44361;51.476;5.700;2022-09-23T08:16:33;13.70;99.90
58582;DHT22;44361;51.476;5.700;2022-09-23T08:18:59;13.70;99.90
58582;DHT22;44361;51.476;5.700;2022-09-23T08:21:24;13.70;99.90
58582;DHT22;44361;51.476;5.700;2022-09-23T08:23:50;13.80;99.90
58582;DHT22;44361;51.476;5.700;2022-09-23T08:26:16;13.80;99.90
58582;DHT22;44361;51.476;5.700;2022-09-23T08:28:43;13.90;99.90
58582;DHT22;44361;51.476;5.700;2022-09-23T08:31:10;14.00;99.90
58582;DHT22;44361;51.476;5.700;2022-09-23T08:33:37;14.00;99.90
58582;DHT22;44361;51.476;5.700;2022-09-23T08:36:03;14.00;99.90
58582;DHT22;44361;51.476;5.700;2022-09-23T08:38:29;14.10;99.90
58582;DHT22;44361;51.476;5.700;2022-09-23T08:43:35;14.40;99.90
58582;DHT22;44361;51.476;5.700;2022-09-23T08:46:08;14.60;99.90
58582;DHT22;44361;51.476;5.700;2022-09-23T08:48:41;14.70;99.90
58582;DHT22;44361;51.476;5.700;2022-09-23T08:51:19;14.70;99.90
58582;DHT22;44361;51.476;5.700;2022-09-23T08:53:46;14.70;99.90
58582;DHT22;44361;51.476;5.700;2022-09-23T08:56:21;14.80;99.90
58582;DHT22;44361;51.476;5.700;2022-09-23T08:59:30;14.80;99.90
58582;DHT22;44361;51.476;5.700;2022-09-23T09:01:52;14.80;99.90
58582;DHT22;44361;51.476;5.700;2022-09-23T09:04:46;14.70;99.90
58582;DHT22;44361;51.476;5.700;2022-09-23T09:07:17;14.90;99.90
58582;DHT22;44361;51.476;5.700;2022-09-23T09:09:47;15.20;99.90
58582;DHT22;44361;51.476;5.700;2022-09-23T09:15:03;15.30;99.90
58582;DHT22;44361;51.476;5.700;2022-09-23T09:17:39;15.40;99.90
58582;DHT22;44361;51.476;5.700;2022-09-23T09:20:28;15.50;99.90
58582;DHT22;44361;51.476;5.700;2022-09-23T09:23:00;15.60;99.90
58582;DHT22;44361;51.476;5.700;2022-09-23T09:25:53;15.90;99.90
58582;DHT22;44361;51.476;5.700;2022-09-23T09:33:45;16.50;99.90
58582;DHT22;44361;51.476;5.700;2022-09-23T09:36:23;16.60;99.90
58582;DHT22;44361;51.476;5.700;2022-09-23T09:38:51;16.80;99.90
58582;DHT22;44361;51.476;5.700;2022-09-23T09:41:17;16.70;99.90
58582;DHT22;44361;51.476;5.700;2022-09-23T09:43:46;16.70;99.90
58582;DHT22;44361;51.476;5.700;2022-09-23T09:49:02;16.50;99.90
58582;DHT22;44361;51.476;5.700;2022-09-23T09:51:33;16.40;99.90
58582;DHT22;44361;51.476;5.700;2022-09-23T09:54:21;16.70;99.90
58582;DHT22;44361;51.476;5.700;2022-09-23T09:56:47;17.00;99.90
58582;DHT22;44361;51.476;5.700;2022-09-23T09:59:18;16.90;99.90
58582;DHT22;44361;51.476;5.700;2022-09-23T10:01:47;17.20;99.90
58582;DHT22;44361;51.476;5.700;2022-09-23T10:04:30;17.60;99.90
58582;DHT22;44361;51.476;5.700;2022-09-23T10:07:08;17.60;99.40
58582;DHT22;44361;51.476;5.700;2022-09-23T10:09:38;17.50;98.60
58582;DHT22;44361;51.476;5.700;2022-09-23T10:12:18;17.50;99.60
58582;DHT22;44361;51.476;5.700;2022-09-23T10:14:45;17.70;99.10
58582;DHT22;44361;51.476;5.700;2022-09-23T10:17:18;17.60;99.20
58582;DHT22;44361;51.476;5.700;2022-09-23T10:19:48;17.80;98.40
58582;DHT22;44361;51.476;5.700;2022-09-23T10:22:35;17.70;97.60
58582;DHT22;44361;51.476;5.700;2022-09-23T10:25:14;18.10;98.10
58582;DHT22;44361;51.476;5.700;2022-09-23T10:27:40;18.40;97.60
58582;DHT22;44361;51.476;5.700;2022-09-23T10:30:25;18.60;97.30
58582;DHT22;44361;51.476;5.700;2022-09-23T10:32:52;18.50;97.00
58582;DHT22;44361;51.476;5.700;2022-09-23T10:35:24;18.40;97.40
58582;DHT22;44361;51.476;5.700;2022-09-23T10:37:55;18.60;96.80
58582;DHT22;44361;51.476;5.700;2022-09-23T10:40:39;18.60;96.40
58582;DHT22;44361;51.476;5.700;2022-09-23T10:43:32;18.60;95.90
58582;DHT22;44361;51.476;5.700;2022-09-23T10:46:29;18.60;96.50
58582;DHT22;44361;51.476;5.700;2022-09-23T11:01:12;19.00;97.20
58582;DHT22;44361;51.476;5.700;2022-09-23T11:18:05;19.10;94.70
58582;DHT22;44361;51.476;5.700;2022-09-23T11:23:52;19.20;94.50
58582;DHT22;44361;51.476;5.700;2022-09-23T11:37:49;19.90;95.00
58582;DHT22;44361;51.476;5.700;2022-09-23T11:40:34;20.00;95.00
58582;DHT22;44361;51.476;5.700;2022-09-23T11:45:56;20.10;94.30
58582;DHT22;44361;51.476;5.700;2022-09-23T11:48:42;20.30;94.80
58582;DHT22;44361;51.476;5.700;2022-09-23T11:51:17;20.10;93.40
58582;DHT22;44361;51.476;5.700;2022-09-23T11:53:59;20.10;93.70
58582;DHT22;44361;51.476;5.700;2022-09-23T12:01:52;20.40;93.90
58582;DHT22;44361;51.476;5.700;2022-09-23T12:04:37;20.30;92.90
58582;DHT22;44361;51.476;5.700;2022-09-23T12:09:48;20.40;91.80
58582;DHT22;44361;51.476;5.700;2022-09-23T12:12:40;20.30;92.30
58582;DHT22;44361;51.476;5.700;2022-09-23T12:23:38;20.10;92.90
58582;DHT22;44361;51.476;5.700;2022-09-23T12:26:11;20.00;91.30
58582;DHT22;44361;51.476;5.700;2022-09-23T12:28:44;20.00;92.00
58582;DHT22;44361;51.476;5.700;2022-09-23T12:31:13;20.00;92.00
58582;DHT22;44361;51.476;5.700;2022-09-23T12:33:51;19.90;92.30
58582;DHT22;44361;51.476;5.700;2022-09-23T12:36:25;19.90;92.40
58582;DHT22;44361;51.476;5.700;2022-09-23T12:38:59;20.00;91.20
58582;DHT22;44361;51.476;5.700;2022-09-23T12:41:35;19.90;90.70
58582;DHT22;44361;51.476;5.700;2022-09-23T12:44:13;19.90;91.00
58582;DHT22;44361;51.476;5.700;2022-09-23T12:46:40;20.10;91.70
58582;DHT22;44361;51.476;5.700;2022-09-23T12:54:45;20.00;90.50
58582;DHT22;44361;51.476;5.700;2022-09-23T12:57:12;20.10;91.70
58582;DHT22;44361;51.476;5.700;2022-09-23T13:02:35;20.10;91.00
58582;DHT22;44361;51.476;5.700;2022-09-23T13:07:57;19.90;91.60
58582;DHT22;44361;51.476;5.700;2022-09-23T13:15:52;19.90;91.80
58582;DHT22;44361;51.476;5.700;2022-09-23T13:18:23;20.00;92.00
58582;DHT22;44361;51.476;5.700;2022-09-23T13:20:50;20.00;92.30
58582;DHT22;44361;51.476;5.700;2022-09-23T13:23:24;19.80;91.30
58582;DHT22;44361;51.476;5.700;2022-09-23T13:25:52;19.80;91.70
58582;DHT22;44361;51.476;5.700;2022-09-23T13:28:31;19.80;91.60
58582;DHT22;44361;51.476;5.700;2022-09-23T13:31:00;19.90;91.40
58582;DHT22;44361;51.476;5.700;2022-09-23T13:33:35;19.80;91.80
58582;DHT22;44361;51.476;5.700;2022-09-23T13:36:02;19.90;91.40
58582;DHT22;44361;51.476;5.700;2022-09-23T13:38:33;20.00;91.90
58582;DHT22;44361;51.476;5.700;2022-09-23T13:41:10;20.10;91.60
58582;DHT22;44361;51.476;5.700;2022-09-23T13:43:39;20.00;92.50
58582;DHT22;44361;51.476;5.700;2022-09-23T13:46:19;19.90;91.80
58582;DHT22;44361;51.476;5.700;2022-09-23T13:48:47;20.00;91.90
58582;DHT22;44361;51.476;5.700;2022-09-23T13:51:25;19.90;91.90
58582;DHT22;44361;51.476;5.700;2022-09-23T13:53:57;19.70;92.20
58582;DHT22;44361;51.476;5.700;2022-09-23T13:56:25;19.50;92.70
58582;DHT22;44361;51.476;5.700;2022-09-23T13:58:52;19.40;92.60
58582;DHT22;44361;51.476;5.700;2022-09-23T14:01:32;19.30;92.80
58582;DHT22;44361;51.476;5.700;2022-09-23T14:03:59;19.10;92.80
58582;DHT22;44361;51.476;5.700;2022-09-23T14:06:24;18.90;93.30
58582;DHT22;44361;51.476;5.700;2022-09-23T14:08:52;18.70;93.70
58582;DHT22;44361;51.476;5.700;2022-09-23T14:11:27;18.70;94.60
58582;DHT22;44361;51.476;5.700;2022-09-23T14:13:56;18.70;94.00
58582;DHT22;44361;51.476;5.700;2022-09-23T14:16:25;18.70;94.30
58582;DHT22;44361;51.476;5.700;2022-09-23T14:18:56;18.70;94.30
58582;DHT22;44361;51.476;5.700;2022-09-23T14:21:37;18.70;94.90
58582;DHT22;44361;51.476;5.700;2022-09-23T14:24:24;18.70;94.50
58582;DHT22;44361;51.476;5.700;2022-09-23T14:32:00;18.70;95.70
58582;DHT22;44361;51.476;5.700;2022-09-23T14:34:51;18.70;95.20
58582;DHT22;44361;51.476;5.700;2022-09-23T14:40:09;18.60;95.10
58582;DHT22;44361;51.476;5.700;2022-09-23T14:42:41;18.50;95.70
58582;DHT22;44361;51.476;5.700;2022-09-23T14:45:12;18.40;96.00
58582;DHT22;44361;51.476;5.700;2022-09-23T14:47:43;18.40;95.50
58582;DHT22;44361;51.476;5.700;2022-09-23T14:50:20;18.30;96.50
58582;DHT22;44361;51.476;5.700;2022-09-23T14:53:02;18.20;96.50
58582;DHT22;44361;51.476;5.700;2022-09-23T14:55:28;18.10;96.50
58582;DHT22;44361;51.476;5.700;2022-09-23T14:58:04;18.00;96.80
58582;DHT22;44361;51.476;5.700;2022-09-23T15:00:30;18.00;96.90
58582;DHT22;44361;51.476;5.700;2022-09-23T15:03:00;18.00;97.20
58582;DHT22;44361;51.476;5.700;2022-09-23T15:05:45;18.10;97.30
58582;DHT22;44361;51.476;5.700;2022-09-23T15:08:22;18.00;97.20
58582;DHT22;44361;51.476;5.700;2022-09-23T15:10:48;18.00;97.00
58582;DHT22;44361;51.476;5.700;2022-09-23T15:13:28;18.00;97.40
58582;DHT22;44361;51.476;5.700;2022-09-23T15:15:55;17.90;97.70
58582;DHT22;44361;51.476;5.700;2022-09-23T15:18:34;17.90;97.70
58582;DHT22;44361;51.476;5.700;2022-09-23T15:21:02;17.90;98.00
58582;DHT22;44361;51.476;5.700;2022-09-23T15:26:18;17.80;98.90
58582;DHT22;44361;51.476;5.700;2022-09-23T15:28:46;17.70;97.80
58582;DHT22;44361;51.476;5.700;2022-09-23T15:31:16;17.70;98.70
58582;DHT22;44361;51.476;5.700;2022-09-23T15:33:49;17.80;98.80
58582;DHT22;44361;51.476;5.700;2022-09-23T15:36:26;17.70;99.10
58582;DHT22;44361;51.476;5.700;2022-09-23T15:38:52;17.70;98.80
58582;DHT22;44361;51.476;5.700;2022-09-23T15:41:20;17.60;99.10
58582;DHT22;44361;51.476;5.700;2022-09-23T15:43:49;17.60;99.10
58582;DHT22;44361;51.476;5.700;2022-09-23T15:46:25;17.60;99.50
58582;DHT22;44361;51.476;5.700;2022-09-23T15:48:57;17.60;99.60
58582;DHT22;44361;51.476;5.700;2022-09-23T15:51:25;17.60;99.50
58582;DHT22;44361;51.476;5.700;2022-09-23T15:53:51;17.60;99.70
58582;DHT22;44361;51.476;5.700;2022-09-23T15:56:20;17.60;99.90
58582;DHT22;44361;51.476;5.700;2022-09-23T15:58:46;17.60;99.80
58582;DHT22;44361;51.476;5.700;2022-09-23T16:01:24;17.60;99.90
58582;DHT22;44361;51.476;5.700;2022-09-23T16:03:50;17.60;99.60
58582;DHT22;44361;51.476;5.700;2022-09-23T16:06:16;17.60;99.90
58582;DHT22;44361;51.476;5.700;2022-09-23T16:08:41;17.60;99.90
58582;DHT22;44361;51.476;5.700;2022-09-23T16:11:22;17.60;99.90
58582;DHT22;44361;51.476;5.700;2022-09-23T16:13:51;17.60;99.90
58582;DHT22;44361;51.476;5.700;2022-09-23T16:16:18;17.60;99.90
58582;DHT22;44361;51.476;5.700;2022-09-23T16:18:46;17.50;99.90
58582;DHT22;44361;51.476;5.700;2022-09-23T16:21:15;17.40;99.90
58582;DHT22;44361;51.476;5.700;2022-09-23T16:23:43;17.40;99.90
58582;DHT22;44361;51.476;5.700;2022-09-23T16:26:15;17.30;99.90
58582;DHT22;44361;51.476;5.700;2022-09-23T16:28:42;17.30;99.90
58582;DHT22;44361;51.476;5.700;2022-09-23T16:31:08;17.20;99.90
58582;DHT22;44361;51.476;5.700;2022-09-23T16:33:35;17.10;99.90
58582;DHT22;44361;51.476;5.700;2022-09-23T16:36:01;17.10;99.90
58582;DHT22;44361;51.476;5.700;2022-09-23T16:38:28;16.90;99.90
58582;DHT22;44361;51.476;5.700;2022-09-23T16:40:54;16.90;99.90
58582;DHT22;44361;51.476;5.700;2022-09-23T16:43:27;16.90;99.90
58582;DHT22;44361;51.476;5.700;2022-09-23T16:46:04;16.80;99.90
58582;DHT22;44361;51.476;5.700;2022-09-23T16:48:30;16.80;99.90
58582;DHT22;44361;51.476;5.700;2022-09-23T16:50:55;16.80;99.90
58582;DHT22;44361;51.476;5.700;2022-09-23T16:53:21;16.70;99.90
58582;DHT22;44361;51.476;5.700;2022-09-23T16:55:47;16.60;99.90
58582;DHT22;44361;51.476;5.700;2022-09-23T16:58:13;16.50;99.90
58582;DHT22;44361;51.476;5.700;2022-09-23T17:00:39;16.50;99.90
58582;DHT22;44361;51.476;5.700;2022-09-23T17:03:23;16.50;99.90
58582;DHT22;44361;51.476;5.700;2022-09-23T17:06:09;16.40;99.90
58582;DHT22;44361;51.476;5.700;2022-09-23T17:08:37;16.40;99.90
58582;DHT22;44361;51.476;5.700;2022-09-23T17:11:05;16.30;99.90
58582;DHT22;44361;51.476;5.700;2022-09-23T17:13:31;16.30;99.90
58582;DHT22;44361;51.476;5.700;2022-09-23T17:15:57;16.20;99.90
58582;DHT22;44361;51.476;5.700;2022-09-23T17:18:25;16.20;99.90
58582;DHT22;44361;51.476;5.700;2022-09-23T17:21:05;16.10;99.90
58582;DHT22;44361;51.476;5.700;2022-09-23T17:23:31;16.10;99.90
58582;DHT22;44361;51.476;5.700;2022-09-23T17:25:58;16.10;99.90
58582;DHT22;44361;51.476;5.700;2022-09-23T17:28:24;16.10;99.90
58582;DHT22;44361;51.476;5.700;2022-09-23T17:31:01;16.00;99.90
58582;DHT22;44361;51.476;5.700;2022-09-23T17:33:28;15.90;99.90
58582;DHT22;44361;51.476;5.700;2022-09-23T17:35:54;15.90;99.90
58582;DHT22;44361;51.476;5.700;2022-09-23T17:38:24;15.90;99.90
58582;DHT22;44361;51.476;5.700;2022-09-23T17:40:54;15.80;99.90
58582;DHT22;44361;51.476;5.700;2022-09-23T17:43:21;15.80;99.90
58582;DHT22;44361;51.476;5.700;2022-09-23T17:46:01;15.80;99.90
58582;DHT22;44361;51.476;5.700;2022-09-23T17:48:30;15.80;99.90
58582;DHT22;44361;51.476;5.700;2022-09-23T17:51:00;15.80;99.90
58582;DHT22;44361;51.476;5.700;2022-09-23T17:53:31;15.70;99.90
58582;DHT22;44361;51.476;5.700;2022-09-23T17:56:02;15.70;99.90
58582;DHT22;44361;51.476;5.700;2022-09-23T17:58:31;15.70;99.90
58582;DHT22;44361;51.476;5.700;2022-09-23T18:00:57;15.70;99.90
58582;DHT22;44361;51.476;5.700;2022-09-23T18:03:24;15.70;99.90
58582;DHT22;44361;51.476;5.700;2022-09-23T18:05:50;15.70;99.90
58582;DHT22;44361;51.476;5.700;2022-09-23T18:08:16;15.60;99.90
58582;DHT22;44361;51.476;5.700;2022-09-23T18:10:42;15.60;99.90
58582;DHT22;44361;51.476;5.700;2022-09-23T18:13:07;15.60;99.90
58582;DHT22;44361;51.476;5.700;2022-09-23T18:15:37;15.60;99.90
58582;DHT22;44361;51.476;5.700;2022-09-23T18:18:04;15.60;99.90
58582;DHT22;44361;51.476;5.700;2022-09-23T18:20:30;15.60;99.90
58582;DHT22;44361;51.476;5.700;2022-09-23T18:22:57;15.50;99.90
58582;DHT22;44361;51.476;5.700;2022-09-23T18:25:22;15.50;99.90
58582;DHT22;44361;51.476;5.700;2022-09-23T18:27:48;15.50;99.90
58582;DHT22;44361;51.476;5.700;2022-09-23T18:30:13;15.50;99.90
58582;DHT22;44361;51.476;5.700;2022-09-23T18:32:40;15.50;99.90